createdAt,value
2018-12-15T00:01:58.154Z,5.40
2018-12-15T00:07:03.527Z,5.41
2018-12-15T00:12:06.766Z,5.40
2018-12-15T00:17:09.973Z,5.57
2018-12-15T00:22:13.199Z,5.62
2018-12-15T00:27:16.543Z,5.53
2018-12-15T00:32:19.878Z,5.54
2018-12-15T00:37:23.294Z,5.62
2018-12-15T00:42:33.591Z,5.66
2018-12-15T00:47:37.835Z,5.58
2018-12-15T00:52:41.051Z,5.57
2018-12-15T00:57:44.286Z,5.57
2018-12-15T01:02:47.515Z,5.55
2018-12-15T01:07:50.925Z,5.70
2018-12-15T01:12:54.161Z,5.70
2018-12-15T01:17:57.372Z,5.72
2018-12-15T01:23:00.523Z,5.73
2018-12-15T01:28:04.551Z,5.78
2018-12-15T01:33:07.763Z,5.83
2018-12-15T01:38:13.948Z,5.83
2018-12-15T01:43:17.226Z,5.84
2018-12-15T01:48:20.458Z,5.86
2018-12-15T01:53:23.724Z,5.84
2018-12-15T01:58:26.947Z,5.90
2018-12-15T02:03:30.153Z,5.91
2018-12-15T02:08:33.421Z,5.97
2018-12-15T02:13:38.720Z,5.83
2018-12-15T02:18:41.988Z,5.80
2018-12-15T02:23:45.233Z,5.72
2018-12-15T02:28:48.493Z,5.70
2018-12-15T02:33:52.618Z,5.80
2018-12-15T02:38:55.984Z,5.87
2018-12-15T02:43:59.193Z,5.90
2018-12-15T02:49:02.546Z,5.90
2018-12-15T02:54:05.916Z,5.89
2018-12-15T02:59:10.216Z,5.97
2018-12-15T03:04:13.413Z,6.06
2018-12-15T03:09:18.876Z,6.12
2018-12-15T03:14:22.173Z,6.15
2018-12-15T03:19:25.437Z,6.07
2018-12-15T03:24:29.683Z,6.07
2018-12-15T03:29:33.033Z,6.05
2018-12-15T03:34:36.508Z,6.09
2018-12-15T03:39:40.674Z,6.10
2018-12-15T03:44:44.205Z,6.16
2018-12-15T03:49:47.367Z,6.22
2018-12-15T03:54:50.497Z,6.25
2018-12-15T03:59:53.919Z,6.25
2018-12-15T04:04:57.368Z,6.30
2018-12-15T04:10:03.587Z,6.26
2018-12-15T04:15:06.924Z,6.14
2018-12-15T04:20:10.172Z,6.18
2018-12-15T04:25:13.365Z,6.29
2018-12-15T04:30:16.966Z,6.30
2018-12-15T04:35:20.119Z,6.32
2018-12-15T04:40:23.735Z,6.30
2018-12-15T04:45:26.951Z,6.30
2018-12-15T04:50:30.133Z,6.36
2018-12-15T04:55:33.271Z,6.27
2018-12-15T05:00:36.553Z,6.16
2018-12-15T05:05:39.779Z,6.22
2018-12-15T05:10:44.030Z,6.28
2018-12-15T05:15:47.272Z,6.27
2018-12-15T05:20:50.522Z,6.36
2018-12-15T05:25:53.804Z,6.37
2018-12-15T05:30:57.040Z,6.37
2018-12-15T05:36:00.401Z,6.45
2018-12-15T05:41:03.702Z,6.51
2018-12-15T05:46:06.881Z,6.56
2018-12-15T05:51:10.070Z,6.54
2018-12-15T05:56:13.368Z,6.66
2018-12-15T06:01:16.567Z,6.58
2018-12-15T06:06:20.379Z,6.59
2018-12-15T06:11:23.738Z,6.60
2018-12-15T06:16:27.191Z,6.66
2018-12-15T06:21:30.469Z,6.78
2018-12-15T06:26:33.774Z,6.75
2018-12-15T06:31:36.985Z,6.56
2018-12-15T06:36:40.487Z,6.56
2018-12-15T06:41:44.120Z,6.59
2018-12-15T06:46:47.322Z,6.59
2018-12-15T06:51:50.477Z,6.69
2018-12-15T06:56:53.872Z,6.66
2018-12-15T07:01:57.140Z,6.74
2018-12-15T07:07:01.281Z,6.81
2018-12-15T07:12:04.763Z,6.83
2018-12-15T07:17:08.376Z,6.89
2018-12-15T07:22:11.605Z,6.89
2018-12-15T07:27:14.869Z,6.91
2018-12-15T07:32:18.030Z,6.89
2018-12-15T07:37:21.334Z,6.93
2018-12-15T07:42:25.815Z,7.04
2018-12-15T07:47:30.351Z,7.06
2018-12-15T07:52:33.644Z,7.06
2018-12-15T07:57:36.881Z,7.02
2018-12-15T08:02:40.185Z,7.17
2018-12-15T08:07:43.503Z,7.26
2018-12-15T08:12:48.835Z,7.21
2018-12-15T08:17:52.074Z,7.28
2018-12-15T08:22:55.331Z,7.33
2018-12-15T08:27:58.637Z,7.40
2018-12-15T08:33:01.891Z,7.41
2018-12-15T08:38:05.355Z,7.28
2018-12-15T08:43:08.641Z,7.44
2018-12-15T08:48:11.903Z,7.33
2018-12-15T08:53:15.322Z,7.29
2018-12-15T08:58:18.466Z,7.30
2018-12-15T09:03:21.709Z,7.33
2018-12-15T09:08:25.696Z,7.30
2018-12-15T09:13:29.393Z,7.26
2018-12-15T09:18:32.643Z,7.27
2018-12-15T09:23:37.213Z,7.37
2018-12-15T09:28:40.714Z,7.45
2018-12-15T09:33:43.933Z,7.43
2018-12-15T09:38:47.179Z,7.45
2018-12-15T09:43:50.560Z,7.48
2018-12-15T09:48:55.985Z,7.45
2018-12-15T09:54:02.015Z,7.44
2018-12-15T09:59:05.993Z,7.37
2018-12-15T10:04:09.226Z,7.45
2018-12-15T10:09:13.804Z,7.78
2018-12-15T10:14:17.208Z,7.78
2018-12-15T10:19:24.297Z,7.82
2018-12-15T10:24:26.337Z,7.73
2018-12-15T10:29:34.926Z,7.74
2018-12-15T10:34:38.098Z,7.81
2018-12-15T10:39:41.392Z,7.93
2018-12-15T10:44:44.763Z,7.90
2018-12-15T10:49:48.246Z,7.85
2018-12-15T10:54:53.514Z,7.95
2018-12-15T10:59:56.703Z,7.94
2018-12-15T11:05:00.944Z,8.06
2018-12-15T11:10:04.861Z,8.18
2018-12-15T11:15:09.477Z,8.19
2018-12-15T11:20:12.944Z,8.20
2018-12-15T11:25:16.184Z,8.27
2018-12-15T11:30:19.427Z,8.34
2018-12-15T11:35:22.784Z,8.30
2018-12-15T11:40:26.623Z,8.19
2018-12-15T11:45:30.855Z,8.28
2018-12-15T11:50:34.261Z,8.43
2018-12-15T11:55:37.455Z,8.45
2018-12-15T12:00:40.960Z,8.51
2018-12-15T12:05:44.226Z,8.54
2018-12-15T12:10:47.576Z,8.51
2018-12-15T12:15:50.911Z,8.41
2018-12-15T12:20:54.567Z,8.44
2018-12-15T12:25:57.865Z,8.40
2018-12-15T12:31:03.190Z,8.40
2018-12-15T12:36:06.552Z,8.30
2018-12-15T12:41:11.666Z,8.23
2018-12-15T12:46:16.896Z,8.11
2018-12-15T12:51:20.308Z,8.18
2018-12-15T12:56:23.614Z,8.21
2018-12-15T13:01:26.875Z,8.19
2018-12-15T13:06:30.253Z,8.23
2018-12-15T13:11:33.566Z,8.23
2018-12-15T13:16:36.965Z,8.18
2018-12-15T13:21:40.166Z,8.29
2018-12-15T13:26:43.457Z,8.18
2018-12-15T13:31:46.730Z,8.12
2018-12-15T13:36:49.991Z,8.14
2018-12-15T13:41:53.207Z,8.22
2018-12-15T13:46:56.553Z,8.34
2018-12-15T13:51:59.868Z,8.41
2018-12-15T13:57:03.090Z,8.27
2018-12-15T14:02:06.331Z,8.34
2018-12-15T14:07:09.620Z,8.42
2018-12-15T14:12:12.910Z,8.40
2018-12-15T14:17:17.272Z,8.55
2018-12-15T14:22:20.972Z,8.56
2018-12-15T14:27:24.255Z,8.65
2018-12-15T14:32:27.628Z,8.68
2018-12-15T14:37:30.885Z,8.67
2018-12-15T14:42:34.246Z,8.74
2018-12-15T14:47:37.651Z,8.76
2018-12-15T14:52:40.945Z,8.86
2018-12-15T14:57:44.222Z,8.87
2018-12-15T15:02:47.358Z,8.90
2018-12-15T15:07:50.545Z,8.94
2018-12-15T15:12:53.795Z,8.92
2018-12-15T15:17:57.111Z,8.94
2018-12-15T15:23:00.930Z,8.97
2018-12-15T15:28:04.557Z,9.05
2018-12-15T15:33:08.168Z,9.04
2018-12-15T15:38:12.027Z,9.06
2018-12-15T15:43:15.336Z,9.08
2018-12-15T15:48:18.890Z,9.02
2018-12-15T15:53:22.107Z,8.97
2018-12-15T15:58:25.414Z,9.02
2018-12-15T16:03:28.923Z,9.10
2018-12-15T16:08:32.440Z,9.18
2018-12-15T16:13:35.602Z,9.10
2018-12-15T16:18:38.982Z,9.17
2018-12-15T16:23:42.259Z,9.20
2018-12-15T16:28:45.603Z,9.26
2018-12-15T16:33:48.991Z,9.18
2018-12-15T16:38:52.276Z,9.28
2018-12-15T16:43:55.775Z,9.24
2018-12-15T16:48:59.112Z,9.09
2018-12-15T16:54:02.510Z,9.20
2018-12-15T16:59:05.995Z,9.30
2018-12-15T17:04:09.356Z,9.33
2018-12-15T17:09:12.665Z,9.21
2018-12-15T17:14:15.984Z,9.34
2018-12-15T17:19:20.095Z,9.34
2018-12-15T17:24:24.412Z,9.26
2018-12-15T17:29:28.078Z,9.20
2018-12-15T17:34:31.946Z,9.29
2018-12-15T17:39:35.343Z,9.38
2018-12-15T17:44:38.735Z,9.38
2018-12-15T17:49:42.299Z,9.33
2018-12-15T17:54:45.760Z,9.37
2018-12-15T17:59:49.100Z,9.39
2018-12-15T18:04:52.427Z,9.51
2018-12-15T18:09:55.926Z,9.58
2018-12-15T18:14:59.276Z,9.51
2018-12-15T18:20:02.798Z,9.41
2018-12-15T18:25:07.009Z,9.53
2018-12-15T18:30:11.401Z,9.32
2018-12-15T18:35:14.920Z,9.34
2018-12-15T18:40:20.463Z,9.36
2018-12-15T18:45:23.858Z,9.47
2018-12-15T18:50:28.269Z,9.43
2018-12-15T18:55:31.536Z,9.39
2018-12-15T19:00:35.761Z,9.45
2018-12-15T19:05:39.225Z,9.54
2018-12-15T19:10:42.496Z,9.56
2018-12-15T19:15:46.307Z,9.55
2018-12-15T19:20:50.038Z,9.53
2018-12-15T19:25:53.409Z,9.50
2018-12-15T19:30:57.624Z,9.47
2018-12-15T19:36:00.899Z,9.52
2018-12-15T19:41:04.452Z,9.55
2018-12-15T19:46:07.835Z,9.60
2018-12-15T19:51:11.389Z,9.54
2018-12-15T19:56:15.044Z,9.59
2018-12-15T20:01:18.560Z,9.59
2018-12-15T20:06:22.594Z,9.52
2018-12-15T20:11:26.199Z,9.49
2018-12-15T20:16:29.580Z,9.51
2018-12-15T20:21:35.985Z,9.52
2018-12-15T20:26:38.391Z,9.49
2018-12-15T20:31:41.812Z,9.54
2018-12-15T20:36:45.126Z,9.57
2018-12-15T20:41:48.421Z,9.58
2018-12-15T20:46:51.579Z,9.56
2018-12-15T20:51:55.535Z,9.49
2018-12-15T20:56:59.053Z,9.48
2018-12-15T21:02:02.665Z,9.42
2018-12-15T21:07:05.959Z,9.43
2018-12-15T21:12:09.355Z,9.47
2018-12-15T21:17:12.733Z,9.50
2018-12-15T21:22:16.027Z,9.47
2018-12-15T21:27:19.441Z,9.47
2018-12-15T21:32:22.905Z,9.40
2018-12-15T21:37:26.442Z,9.43
2018-12-15T21:42:29.959Z,9.40
2018-12-15T21:47:33.361Z,9.45
2018-12-15T21:52:36.823Z,9.47
2018-12-15T21:57:39.989Z,9.38
2018-12-15T22:02:43.315Z,9.42
2018-12-15T22:07:46.550Z,9.41
2018-12-15T22:12:49.819Z,9.38
2018-12-15T22:17:53.052Z,9.45
2018-12-15T22:22:56.293Z,9.45
2018-12-15T22:27:59.585Z,9.46
2018-12-15T22:33:02.812Z,9.50
2018-12-15T22:38:06.189Z,9.57
2018-12-15T22:43:10.449Z,9.58
2018-12-15T22:48:13.771Z,9.61
2018-12-15T22:53:17.100Z,9.67
2018-12-15T22:58:20.254Z,9.73
2018-12-15T23:03:23.466Z,9.59
2018-12-15T23:08:26.860Z,9.56
2018-12-15T23:13:30.131Z,9.48
2018-12-15T23:18:33.385Z,9.58
2018-12-15T23:23:36.555Z,9.65
2018-12-15T23:28:39.800Z,9.67
2018-12-15T23:33:43.023Z,9.69
2018-12-15T23:38:46.302Z,9.58
2018-12-15T23:43:49.400Z,9.59
2018-12-15T23:48:52.668Z,9.59
2018-12-15T23:53:55.956Z,9.68
2018-12-15T23:58:59.147Z,9.70
